createdAt,value
2023-04-20T00:01:36.275Z,11.80
2023-04-20T00:04:04.567Z,12.90
2023-04-20T00:06:34.166Z,8.93
2023-04-20T00:09:02.123Z,8.67
2023-04-20T00:11:30.052Z,17.47
2023-04-20T00:13:57.553Z,9.03
2023-04-20T00:16:26.252Z,8.50
2023-04-20T00:18:54.223Z,10.03
2023-04-20T00:21:25.207Z,8.27
2023-04-20T00:23:52.698Z,7.57
2023-04-20T00:26:21.263Z,8.40
2023-04-20T00:28:49.226Z,8.63
2023-04-20T00:31:16.853Z,6.87
2023-04-20T00:33:44.518Z,6.70
2023-04-20T00:36:12.387Z,10.00
2023-04-20T00:38:39.852Z,6.90
2023-04-20T00:41:07.784Z,6.97
2023-04-20T00:43:36.171Z,8.23
2023-04-20T00:46:04.026Z,7.30
2023-04-20T00:48:31.938Z,10.80
2023-04-20T00:50:59.451Z,9.37
2023-04-20T00:53:26.638Z,8.03
2023-04-20T00:58:29.854Z,7.83
2023-04-20T01:00:57.767Z,6.63
2023-04-20T01:03:25.741Z,6.33
2023-04-20T01:05:54.027Z,7.33
2023-04-20T01:08:26.171Z,7.00
2023-04-20T01:10:54.508Z,7.20
2023-04-20T01:13:22.213Z,6.00
2023-04-20T01:15:50.078Z,6.73
2023-04-20T01:18:20.063Z,7.77
2023-04-20T01:20:48.025Z,6.33
2023-04-20T01:23:16.069Z,7.77
2023-04-20T01:25:44.182Z,8.07
2023-04-20T01:28:14.542Z,7.83
2023-04-20T01:30:43.018Z,6.87
2023-04-20T01:33:10.706Z,5.50
2023-04-20T01:35:38.940Z,6.80
2023-04-20T01:38:06.892Z,8.47
2023-04-20T01:40:35.354Z,7.63
2023-04-20T01:43:03.289Z,6.43
2023-04-20T01:45:31.426Z,7.10
2023-04-20T01:47:59.594Z,6.40
2023-04-20T01:50:27.240Z,8.73
2023-04-20T01:52:55.666Z,6.67
2023-04-20T01:55:23.636Z,7.80
2023-04-20T01:57:51.719Z,8.17
2023-04-20T02:00:20.423Z,6.73
2023-04-20T02:02:48.463Z,6.30
2023-04-20T02:05:16.224Z,10.57
2023-04-20T02:07:43.742Z,7.00
2023-04-20T02:10:12.245Z,8.83
2023-04-20T02:12:39.895Z,6.30
2023-04-20T02:15:10.318Z,9.00
2023-04-20T02:17:38.322Z,7.67
2023-04-20T02:20:11.969Z,6.03
2023-04-20T02:22:40.162Z,6.20
2023-04-20T02:25:07.992Z,6.70
2023-04-20T02:27:35.700Z,9.67
2023-04-20T02:30:04.341Z,6.60
2023-04-20T02:32:32.339Z,6.50
2023-04-20T02:35:00.069Z,8.23
2023-04-20T02:37:27.721Z,7.30
2023-04-20T02:39:55.775Z,8.40
2023-04-20T02:42:23.877Z,6.57
2023-04-20T02:44:52.999Z,8.90
2023-04-20T02:47:20.900Z,8.03
2023-04-20T02:49:48.486Z,7.93
2023-04-20T02:52:15.714Z,8.20
2023-04-20T02:54:43.582Z,7.43
2023-04-20T02:57:11.803Z,7.13
2023-04-20T02:59:39.875Z,8.27
2023-04-20T03:02:08.150Z,9.73
2023-04-20T03:04:35.547Z,7.87
2023-04-20T03:07:04.971Z,7.10
2023-04-20T03:09:32.899Z,7.87
2023-04-20T03:12:02.634Z,7.47
2023-04-20T03:14:31.195Z,9.23
2023-04-20T03:16:59.476Z,8.27
2023-04-20T03:19:27.652Z,9.20
2023-04-20T03:21:55.804Z,7.07
2023-04-20T03:24:24.209Z,6.40
2023-04-20T03:26:52.306Z,7.10
2023-04-20T03:29:20.569Z,9.83
2023-04-20T03:31:48.809Z,6.63
2023-04-20T03:34:16.489Z,9.33
2023-04-20T03:36:44.537Z,8.10
2023-04-20T03:39:12.573Z,8.10
2023-04-20T03:41:40.259Z,7.70
2023-04-20T03:44:08.635Z,7.93
2023-04-20T03:46:36.543Z,7.67
2023-04-20T03:49:04.587Z,8.63
2023-04-20T03:51:32.621Z,7.27
2023-04-20T03:54:00.598Z,13.27
2023-04-20T03:56:28.598Z,9.33
2023-04-20T03:58:56.188Z,8.50
2023-04-20T04:01:24.852Z,10.10
2023-04-20T04:03:52.940Z,8.07
2023-04-20T04:06:20.766Z,7.10
2023-04-20T04:08:48.821Z,7.63
2023-04-20T04:11:16.640Z,14.13
2023-04-20T04:13:44.609Z,7.73
2023-04-20T04:16:12.522Z,7.33
2023-04-20T04:18:44.016Z,7.63
2023-04-20T04:21:11.592Z,9.13
2023-04-20T04:23:39.232Z,11.03
2023-04-20T04:26:07.433Z,11.97
2023-04-20T04:28:35.683Z,8.50
2023-04-20T04:31:06.091Z,8.17
2023-04-20T04:33:34.352Z,8.73
2023-04-20T04:36:02.657Z,6.57
2023-04-20T04:38:31.718Z,7.87
2023-04-20T04:40:59.773Z,7.87
2023-04-20T04:43:28.192Z,7.47
2023-04-20T04:45:58.504Z,9.93
2023-04-20T04:48:25.724Z,8.33
2023-04-20T04:50:53.705Z,7.27
2023-04-20T04:53:21.839Z,8.87
2023-04-20T04:55:49.881Z,7.53
2023-04-20T04:58:17.893Z,12.10
2023-04-20T05:00:45.483Z,7.43
2023-04-20T05:03:13.735Z,6.43
2023-04-20T05:05:42.125Z,7.70
2023-04-20T05:08:10.046Z,8.97
2023-04-20T05:10:38.162Z,9.10
2023-04-20T05:13:05.915Z,6.40
2023-04-20T05:15:34.641Z,8.10
2023-04-20T05:18:02.835Z,5.90
2023-04-20T05:20:31.247Z,7.30
2023-04-20T05:22:58.814Z,6.93
2023-04-20T05:25:26.797Z,11.47
2023-04-20T05:27:54.976Z,8.47
2023-04-20T05:30:22.581Z,6.87
2023-04-20T05:32:52.346Z,8.90
2023-04-20T05:35:21.600Z,8.07
2023-04-20T05:37:49.585Z,7.90
2023-04-20T05:40:17.383Z,7.43
2023-04-20T05:42:45.382Z,10.27
2023-04-20T05:45:13.049Z,7.57
2023-04-20T05:47:41.332Z,8.73
2023-04-20T05:50:11.658Z,8.87
2023-04-20T05:52:39.376Z,9.00
2023-04-20T05:55:09.426Z,7.67
2023-04-20T05:57:42.986Z,10.87
2023-04-20T06:00:13.922Z,10.07
2023-04-20T06:02:41.627Z,8.97
2023-04-20T06:05:11.392Z,8.63
2023-04-20T06:07:39.283Z,8.77
2023-04-20T06:10:09.543Z,5.97
2023-04-20T06:12:37.386Z,6.27
2023-04-20T06:15:09.141Z,6.20
2023-04-20T06:17:41.178Z,6.97
2023-04-20T06:20:12.112Z,8.00
2023-04-20T06:23:03.567Z,7.07
2023-04-20T06:25:31.965Z,12.77
2023-04-20T06:28:00.265Z,6.63
2023-04-20T06:30:28.394Z,8.03
2023-04-20T06:32:56.513Z,6.47
2023-04-20T06:35:24.594Z,5.43
2023-04-20T06:37:52.217Z,6.37
2023-04-20T06:40:19.592Z,9.97
2023-04-20T06:42:47.984Z,8.00
2023-04-20T06:45:15.773Z,8.47
2023-04-20T06:47:44.876Z,8.53
2023-04-20T06:50:13.110Z,7.20
2023-04-20T06:52:42.109Z,7.73
2023-04-20T06:55:10.211Z,6.60
2023-04-20T06:57:39.956Z,9.20
2023-04-20T07:00:09.805Z,8.40
2023-04-20T07:02:47.572Z,6.20
2023-04-20T07:05:15.934Z,6.33
2023-04-20T07:07:43.595Z,8.13
2023-04-20T07:10:13.570Z,6.27
2023-04-20T07:12:43.203Z,5.67
2023-04-20T07:15:11.755Z,6.80
2023-04-20T07:17:39.907Z,5.67
2023-04-20T07:20:10.232Z,5.57
2023-04-20T07:22:38.672Z,5.43
2023-04-20T07:25:08.613Z,6.20
2023-04-20T07:27:37.296Z,4.63
2023-04-20T07:30:08.263Z,5.13
2023-04-20T07:32:36.102Z,4.40
2023-04-20T07:35:04.350Z,4.13
2023-04-20T07:37:32.108Z,5.03
2023-04-20T07:40:00.198Z,7.23
2023-04-20T07:42:27.955Z,5.13
2023-04-20T07:44:55.657Z,7.03
2023-04-20T07:47:23.767Z,4.77
2023-04-20T07:49:52.051Z,5.23
2023-04-20T07:52:20.403Z,4.33
2023-04-20T07:54:48.010Z,4.70
2023-04-20T07:57:15.629Z,3.60
2023-04-20T07:59:43.441Z,3.77
2023-04-20T08:02:12.308Z,5.33
2023-04-20T08:04:40.615Z,5.37
2023-04-20T08:07:09.568Z,6.20
2023-04-20T08:09:37.452Z,4.17
2023-04-20T08:12:06.849Z,5.10
2023-04-20T08:14:34.820Z,3.73
2023-04-20T08:17:02.734Z,4.53
2023-04-20T08:19:30.346Z,3.97
2023-04-20T08:21:59.353Z,3.70
2023-04-20T08:24:27.580Z,4.03
2023-04-20T08:26:55.689Z,3.67
2023-04-20T08:29:23.641Z,6.13
2023-04-20T08:31:51.872Z,4.37
2023-04-20T08:34:19.752Z,4.17
2023-04-20T08:36:47.471Z,4.90
2023-04-20T08:39:19.349Z,7.83
2023-04-20T08:41:48.089Z,6.87
2023-04-20T08:44:15.760Z,4.90
2023-04-20T08:46:43.468Z,4.40
2023-04-20T08:49:13.046Z,5.53
2023-04-20T08:51:41.724Z,5.17
2023-04-20T08:54:10.633Z,5.80
2023-04-20T08:56:39.583Z,7.47
2023-04-20T08:59:10.243Z,4.40
2023-04-20T09:01:39.433Z,8.43
2023-04-20T09:04:20.099Z,5.20
2023-04-20T09:06:51.511Z,3.17
2023-04-20T09:09:42.333Z,6.03
2023-04-20T09:12:10.412Z,5.40
2023-04-20T09:14:44.648Z,4.53
2023-04-20T09:17:14.800Z,5.77
2023-04-20T09:19:44.608Z,6.03
2023-04-20T09:22:15.084Z,6.90
2023-04-20T09:24:42.809Z,5.30
2023-04-20T09:27:16.684Z,4.90
2023-04-20T09:29:44.362Z,5.37
2023-04-20T09:32:43.157Z,6.07
2023-04-20T09:35:11.048Z,3.93
2023-04-20T09:37:48.312Z,5.83
2023-04-20T09:40:16.551Z,5.23
2023-04-20T09:42:44.648Z,3.27
2023-04-20T09:45:16.521Z,4.97
2023-04-20T09:47:44.505Z,7.70
2023-04-20T09:50:24.848Z,3.80
2023-04-20T09:52:54.297Z,3.87
2023-04-20T09:55:21.855Z,3.60
2023-04-20T09:57:49.944Z,3.43
2023-04-20T10:00:19.911Z,4.33
2023-04-20T10:02:48.551Z,3.50
2023-04-20T10:05:17.049Z,5.23
2023-04-20T10:07:44.708Z,3.93
2023-04-20T10:10:15.796Z,4.27
2023-04-20T10:12:48.914Z,7.10
2023-04-20T10:15:16.715Z,6.03
2023-04-20T10:17:44.127Z,3.70
2023-04-20T10:20:21.234Z,5.70
2023-04-20T10:22:49.004Z,5.60
2023-04-20T10:25:19.445Z,4.73
2023-04-20T10:28:21.357Z,7.70
2023-04-20T10:30:52.342Z,6.10
2023-04-20T10:33:20.384Z,8.90
2023-04-20T10:36:10.259Z,7.90
2023-04-20T10:38:38.264Z,7.13
2023-04-20T10:41:13.798Z,8.10
2023-04-20T10:43:43.356Z,7.93
2023-04-20T10:46:26.803Z,8.00
2023-04-20T10:48:56.054Z,7.23
2023-04-20T10:51:43.560Z,6.40
2023-04-20T10:54:11.569Z,7.27
2023-04-20T10:56:46.569Z,8.87
2023-04-20T11:01:47.578Z,7.70
2023-04-20T11:04:18.300Z,7.23
2023-04-20T11:06:48.144Z,10.37
2023-04-20T11:09:23.663Z,7.07
2023-04-20T11:12:29.719Z,9.17
2023-04-20T11:14:58.772Z,6.63
2023-04-20T11:17:36.464Z,8.30
2023-04-20T11:20:11.076Z,7.50
2023-04-20T11:22:39.580Z,8.63
2023-04-20T11:25:12.654Z,9.03
2023-04-20T11:27:41.292Z,7.87
2023-04-20T11:30:10.098Z,7.40
2023-04-20T11:32:38.383Z,9.97
2023-04-20T11:35:08.782Z,8.03
2023-04-20T11:37:51.572Z,8.00
2023-04-20T11:40:26.681Z,8.77
2023-04-20T11:42:56.337Z,8.15
2023-04-20T11:45:24.514Z,8.70
2023-04-20T11:47:52.757Z,9.50
2023-04-20T11:50:21.233Z,10.50
2023-04-20T11:52:49.629Z,10.50
2023-04-20T11:55:17.849Z,8.90
2023-04-20T11:57:48.392Z,8.33
2023-04-20T12:00:18.170Z,7.77
2023-04-20T12:02:45.889Z,9.73
2023-04-20T12:05:13.853Z,8.30
2023-04-20T12:07:41.894Z,10.13
2023-04-20T12:10:11.583Z,8.70
2023-04-20T12:12:39.515Z,8.83
2023-04-20T12:15:11.527Z,8.07
2023-04-20T12:17:39.873Z,8.77
2023-04-20T12:20:12.689Z,8.13
2023-04-20T12:22:41.013Z,8.13
2023-04-20T12:25:09.947Z,10.57
2023-04-20T12:27:38.036Z,7.87
2023-04-20T12:30:09.388Z,8.97
2023-04-20T12:32:40.432Z,7.97
2023-04-20T12:35:09.576Z,8.13
2023-04-20T12:37:37.642Z,6.60
2023-04-20T12:40:08.825Z,9.13
2023-04-20T12:42:36.518Z,6.60
2023-04-20T12:45:05.300Z,8.07
2023-04-20T12:47:32.913Z,6.60
2023-04-20T12:50:00.623Z,8.27
2023-04-20T12:52:29.799Z,5.72
2023-04-20T12:54:57.776Z,6.60
2023-04-20T12:57:25.599Z,6.43
2023-04-20T12:59:53.640Z,6.45
2023-04-20T13:02:22.519Z,7.75
2023-04-20T13:04:50.794Z,5.85
2023-04-20T13:07:18.492Z,6.35
2023-04-20T13:09:45.641Z,6.63
2023-04-20T13:12:13.780Z,8.38
2023-04-20T13:14:41.825Z,6.78
2023-04-20T13:17:10.016Z,5.78
2023-04-20T13:19:37.874Z,4.95
2023-04-20T13:22:06.917Z,6.50
2023-04-20T13:24:34.678Z,6.38
2023-04-20T13:27:02.588Z,7.80
2023-04-20T13:29:30.440Z,6.57
2023-04-20T13:31:58.602Z,6.07
2023-04-20T13:34:26.120Z,4.88
2023-04-20T13:36:54.179Z,6.00
2023-04-20T13:39:22.058Z,5.93
2023-04-20T13:41:50.234Z,5.53
2023-04-20T13:44:17.987Z,6.77
2023-04-20T13:46:45.922Z,9.70
2023-04-20T13:49:14.429Z,7.20
2023-04-20T13:51:42.440Z,5.03
2023-04-20T13:54:10.394Z,6.53
2023-04-20T13:56:38.505Z,5.87
2023-04-20T13:59:06.404Z,8.40
2023-04-20T14:01:34.961Z,4.67
2023-04-20T14:04:03.352Z,6.57
2023-04-20T14:06:31.208Z,4.40
2023-04-20T14:08:58.678Z,5.93
2023-04-20T14:11:26.909Z,5.43
2023-04-20T14:13:54.569Z,4.03
2023-04-20T14:16:23.015Z,4.37
2023-04-20T14:18:50.586Z,5.73
2023-04-20T14:21:25.720Z,5.20
2023-04-20T14:23:54.678Z,5.07
2023-04-20T14:26:22.202Z,6.30
2023-04-20T14:28:51.820Z,6.53
2023-04-20T14:31:19.939Z,6.13
2023-04-20T14:33:47.804Z,6.57
2023-04-20T14:36:15.315Z,5.53
2023-04-20T14:38:43.660Z,6.30
2023-04-20T14:41:11.263Z,8.73
2023-04-20T14:43:39.230Z,7.53
2023-04-20T14:46:07.584Z,8.60
2023-04-20T14:48:38.703Z,6.77
2023-04-20T14:51:07.287Z,8.70
2023-04-20T14:53:34.820Z,7.00
2023-04-20T14:56:02.855Z,8.57
2023-04-20T14:58:30.817Z,6.93
2023-04-20T15:00:58.782Z,5.03
2023-04-20T15:03:27.179Z,6.90
2023-04-20T15:05:59.403Z,5.93
2023-04-20T15:08:27.773Z,6.93
2023-04-20T15:10:56.833Z,6.10
2023-04-20T15:13:25.057Z,5.07
2023-04-20T15:15:54.986Z,7.30
2023-04-20T15:18:23.662Z,7.20
2023-04-20T15:20:53.977Z,6.90
2023-04-20T15:23:24.758Z,8.77
2023-04-20T15:25:53.450Z,6.33
2023-04-20T15:28:21.038Z,6.47
2023-04-20T15:30:49.016Z,6.67
2023-04-20T15:33:17.520Z,5.67
2023-04-20T15:35:48.307Z,5.77
2023-04-20T15:38:16.578Z,9.13
2023-04-20T15:40:45.129Z,6.27
2023-04-20T15:43:13.382Z,5.37
2023-04-20T15:45:42.867Z,6.40
2023-04-20T15:48:13.118Z,6.27
2023-04-20T15:50:40.584Z,5.80
2023-04-20T15:53:08.255Z,5.27
2023-04-20T15:55:39.504Z,5.73
2023-04-20T15:58:07.295Z,5.00
2023-04-20T16:00:35.183Z,8.20
2023-04-20T16:03:03.338Z,9.70
2023-04-20T16:05:30.982Z,5.67
2023-04-20T16:07:58.955Z,6.00
2023-04-20T16:10:27.732Z,4.83
2023-04-20T16:12:56.108Z,3.87
2023-04-20T16:15:23.588Z,4.10
2023-04-20T16:17:51.103Z,4.30
2023-04-20T16:20:18.936Z,4.57
2023-04-20T16:22:46.429Z,3.93
2023-04-20T16:25:22.828Z,3.47
2023-04-20T16:27:51.723Z,3.60
2023-04-20T16:30:19.468Z,3.53
2023-04-20T16:32:47.115Z,4.00
2023-04-20T16:35:14.817Z,3.10
2023-04-20T16:37:42.785Z,4.50
2023-04-20T16:40:11.838Z,4.13
2023-04-20T16:42:39.922Z,6.70
2023-04-20T16:45:10.195Z,3.63
2023-04-20T16:47:38.279Z,4.07
2023-04-20T16:50:09.276Z,5.70
2023-04-20T16:52:37.123Z,3.80
2023-04-20T16:55:06.454Z,4.17
2023-04-20T16:57:34.042Z,4.70
2023-04-20T17:00:02.251Z,3.53
2023-04-20T17:02:33.184Z,4.50
2023-04-20T17:05:00.733Z,5.70
2023-04-20T17:07:29.228Z,3.90
2023-04-20T17:09:57.445Z,3.70
2023-04-20T17:12:25.628Z,2.77
2023-04-20T17:14:53.090Z,3.50
2023-04-20T17:17:21.106Z,3.37
2023-04-20T17:19:52.146Z,6.17
2023-04-20T17:22:20.065Z,5.10
2023-04-20T17:24:48.092Z,3.90
2023-04-20T17:27:16.128Z,3.90
2023-04-20T17:29:44.937Z,3.13
2023-04-20T17:32:13.409Z,3.47
2023-04-20T17:34:41.958Z,3.93
2023-04-20T17:37:13.130Z,4.00
2023-04-20T17:39:40.889Z,8.73
2023-04-20T17:42:08.008Z,5.60
2023-04-20T17:44:36.196Z,4.33
2023-04-20T17:47:04.312Z,4.60
2023-04-20T17:49:32.641Z,5.77
2023-04-20T17:52:00.624Z,4.73
2023-04-20T17:54:28.837Z,4.40
2023-04-20T17:56:58.148Z,3.70
2023-04-20T17:59:25.852Z,6.33
2023-04-20T18:01:54.111Z,4.40
2023-04-20T18:04:24.839Z,5.70
2023-04-20T18:06:52.795Z,4.50
2023-04-20T18:09:20.515Z,3.93
2023-04-20T18:11:48.506Z,4.80
2023-04-20T18:14:16.604Z,6.00
2023-04-20T18:16:44.630Z,4.60
2023-04-20T18:19:12.835Z,5.40
2023-04-20T18:21:41.007Z,6.60
2023-04-20T18:24:08.997Z,5.13
2023-04-20T18:26:37.146Z,6.50
2023-04-20T18:29:04.845Z,4.67
2023-04-20T18:31:35.491Z,5.00
2023-04-20T18:34:03.420Z,5.30
2023-04-20T18:36:32.229Z,6.20
2023-04-20T18:38:59.945Z,5.83
2023-04-20T18:41:29.405Z,5.63
2023-04-20T18:43:57.017Z,7.03
2023-04-20T18:46:25.779Z,5.60
2023-04-20T18:48:55.932Z,4.47
2023-04-20T18:51:23.778Z,5.53
2023-04-20T18:53:51.547Z,5.50
2023-04-20T18:56:19.966Z,5.80
2023-04-20T18:58:48.700Z,3.83
2023-04-20T19:01:16.560Z,6.67
2023-04-20T19:03:47.669Z,4.93
2023-04-20T19:06:16.359Z,4.03
2023-04-20T19:08:43.978Z,5.00
2023-04-20T19:11:12.461Z,5.20
2023-04-20T19:13:44.509Z,4.47
2023-04-20T19:16:12.486Z,5.17
2023-04-20T19:18:40.324Z,6.13
2023-04-20T19:21:07.530Z,5.70
2023-04-20T19:23:36.306Z,5.33
2023-04-20T19:26:04.589Z,4.77
2023-04-20T19:28:32.653Z,5.13
2023-04-20T19:31:00.458Z,4.70
2023-04-20T19:33:27.976Z,4.40
2023-04-20T19:35:56.139Z,5.53
2023-04-20T19:38:26.538Z,4.53
2023-04-20T19:40:54.288Z,5.00
2023-04-20T19:43:23.236Z,4.73
2023-04-20T19:45:51.479Z,5.77
2023-04-20T19:48:18.989Z,4.73
2023-04-20T19:50:46.917Z,5.83
2023-04-20T19:53:15.501Z,4.77
2023-04-20T19:55:43.224Z,4.40
2023-04-20T19:58:11.052Z,4.90
2023-04-20T20:00:38.922Z,6.17
2023-04-20T20:03:08.275Z,4.33
2023-04-20T20:05:36.186Z,5.87
2023-04-20T20:08:04.409Z,8.20
2023-04-20T20:10:32.632Z,5.97
2023-04-20T20:13:00.233Z,6.03
2023-04-20T20:15:28.223Z,6.70
2023-04-20T20:17:55.947Z,8.50
2023-04-20T20:20:23.932Z,6.97
2023-04-20T20:22:51.472Z,8.23
2023-04-20T20:25:22.076Z,7.80
2023-04-20T20:27:55.887Z,7.67
2023-04-20T20:30:24.055Z,8.83
2023-04-20T20:32:51.825Z,9.07
2023-04-20T20:35:19.898Z,7.67
2023-04-20T20:37:48.484Z,6.47
2023-04-20T20:40:16.011Z,7.23
2023-04-20T20:42:45.369Z,7.30
2023-04-20T20:45:13.303Z,6.80
2023-04-20T20:47:41.115Z,5.70
2023-04-20T20:50:10.080Z,6.10
2023-04-20T20:52:38.229Z,7.63
2023-04-20T20:55:06.692Z,6.27
2023-04-20T20:57:34.365Z,6.73
2023-04-20T21:00:02.044Z,6.13
2023-04-20T21:02:30.039Z,6.30
2023-04-20T21:05:00.482Z,6.03
2023-04-20T21:07:28.059Z,5.23
2023-04-20T21:09:55.796Z,7.50
2023-04-20T21:12:23.370Z,5.70
2023-04-20T21:14:52.247Z,5.33
2023-04-20T21:17:20.429Z,4.93
2023-04-20T21:19:47.840Z,4.70
2023-04-20T21:22:15.498Z,4.70
2023-04-20T21:24:44.197Z,5.20
2023-04-20T21:27:11.947Z,6.30
2023-04-20T21:29:39.873Z,6.73
2023-04-20T21:32:07.287Z,4.90
2023-04-20T21:34:35.028Z,4.77
2023-04-20T21:37:06.233Z,5.13
2023-04-20T21:39:34.177Z,4.93
2023-04-20T21:42:03.675Z,5.13
2023-04-20T21:44:31.596Z,5.40
2023-04-20T21:46:59.153Z,5.60
2023-04-20T21:49:27.538Z,5.70
2023-04-20T21:51:55.275Z,7.07
2023-04-20T21:54:23.196Z,5.77
2023-04-20T21:56:50.722Z,5.37
2023-04-20T21:59:20.480Z,7.03
2023-04-20T22:01:48.300Z,5.27
2023-04-20T22:04:16.893Z,6.03
2023-04-20T22:06:45.064Z,5.70
2023-04-20T22:09:13.449Z,6.03
2023-04-20T22:11:41.060Z,5.13
2023-04-20T22:14:09.008Z,4.07
2023-04-20T22:16:36.534Z,5.33
2023-04-20T22:19:04.573Z,5.27
2023-04-20T22:21:32.204Z,5.10
2023-04-20T22:23:59.417Z,4.50
2023-04-20T22:26:27.436Z,4.83
2023-04-20T22:28:55.505Z,6.60
2023-04-20T22:31:23.060Z,5.23
2023-04-20T22:33:51.035Z,4.57
2023-04-20T22:36:18.957Z,5.23
2023-04-20T22:38:46.992Z,6.60
2023-04-20T22:41:17.310Z,5.20
2023-04-20T22:43:45.202Z,5.10
2023-04-20T22:46:13.299Z,5.30
2023-04-20T22:48:41.782Z,5.73
2023-04-20T22:51:09.766Z,4.97
2023-04-20T22:53:37.771Z,4.70
2023-04-20T22:56:08.716Z,6.97
2023-04-20T22:58:36.766Z,4.17
2023-04-20T23:01:04.433Z,5.47
2023-04-20T23:03:36.336Z,4.77
2023-04-20T23:06:05.184Z,4.83
2023-04-20T23:08:33.575Z,4.30
2023-04-20T23:11:01.557Z,5.53
2023-04-20T23:13:29.208Z,6.53
2023-04-20T23:15:57.205Z,4.37
2023-04-20T23:18:25.368Z,5.67
2023-04-20T23:20:53.134Z,4.60
2023-04-20T23:23:21.100Z,4.33
2023-04-20T23:25:49.157Z,5.20
2023-04-20T23:28:17.070Z,4.80
2023-04-20T23:30:45.260Z,4.77
2023-04-20T23:33:13.370Z,4.90
2023-04-20T23:35:41.135Z,6.03
2023-04-20T23:38:09.286Z,5.43
2023-04-20T23:40:37.298Z,5.10
2023-04-20T23:43:05.367Z,4.53
2023-04-20T23:45:33.421Z,4.53
2023-04-20T23:48:01.749Z,4.67
2023-04-20T23:50:29.499Z,4.63
2023-04-20T23:52:57.746Z,7.53
2023-04-20T23:55:25.469Z,6.60
2023-04-20T23:57:54.417Z,3.90
